Time;durP1;ratioP1;P1;durP2;ratioP2;P2;SDS_P1;SDS_P2;PMS_P1;PMS_P2;Temp;Humidity;BMP_temperature;BMP_pressure;BME280_temperature;BME280_humidity;BME280_pressure;Samples;Min_cycle;Max_cycle;Signal;HPM_P1;HPM_P2
2021/11/16 00:01:39;;;;;;;26.23;17.83;;;7.50;99.90;;;;;;5010742;28;20513;-36
2021/11/16 00:04:08;;;;;;;26.70;17.97;;;7.50;99.90;;;;;;5012885;28;20596;-36
2021/11/16 00:06:35;;;;;;;29.33;18.53;;;7.70;99.90;;;;;;5016242;28;20429;-37
2021/11/16 00:09:03;;;;;;;26.77;17.93;;;7.40;99.90;;;;;;5006831;28;20770;-36
2021/11/16 00:11:29;;;;;;;25.90;17.30;;;7.30;99.90;;;;;;5008231;28;20531;-37
2021/11/16 00:13:55;;;;;;;26.10;17.07;;;7.50;99.90;;;;;;5019188;28;20465;-36
2021/11/16 00:16:21;;;;;;;26.77;16.87;;;7.50;99.90;;;;;;5024269;28;20421;-36
2021/11/16 00:18:55;;;;;;;24.47;15.53;;;7.50;99.90;;;;;;5006735;28;20593;-36
2021/11/16 00:21:23;;;;;;;24.53;16.10;;;7.40;99.90;;;;;;5010226;28;20826;-36
2021/11/16 00:23:53;;;;;;;26.60;16.43;;;7.70;99.90;;;;;;5007634;28;20817;-36
2021/11/16 00:26:19;;;;;;;24.97;16.50;;;7.60;99.90;;;;;;5011286;28;20452;-36
2021/11/16 00:28:45;;;;;;;23.43;15.73;;;7.70;99.90;;;;;;5010050;28;20869;-37
2021/11/16 00:31:11;;;;;;;23.70;15.30;;;7.50;99.90;;;;;;5012526;28;20426;-36
2021/11/16 00:33:37;;;;;;;24.83;15.27;;;7.50;99.90;;;;;;5006699;28;20560;-36
2021/11/16 00:36:03;;;;;;;22.87;15.40;;;7.70;99.90;;;;;;5019713;28;20187;-36
2021/11/16 00:38:30;;;;;;;27.03;16.97;;;7.70;99.90;;;;;;5007541;28;20222;-36
2021/11/16 00:40:56;;;;;;;22.27;15.17;;;7.70;99.90;;;;;;5009080;28;20418;-36
2021/11/16 00:43:22;;;;;;;26.83;16.93;;;7.40;99.90;;;;;;5014153;28;20460;-36
2021/11/16 00:45:48;;;;;;;24.30;16.53;;;7.40;99.90;;;;;;5016779;28;20418;-36
2021/11/16 00:48:16;;;;;;;21.13;15.10;;;7.30;99.90;;;;;;5015779;28;20420;-37
2021/11/16 00:50:44;;;;;;;23.93;15.20;;;7.40;99.90;;;;;;5019182;28;20967;-36
2021/11/16 00:53:10;;;;;;;24.30;16.17;;;7.50;99.90;;;;;;5006707;28;20429;-36
2021/11/16 00:55:36;;;;;;;23.83;16.97;;;7.50;99.90;;;;;;5007246;28;20427;-37
2021/11/16 00:58:02;;;;;;;26.90;16.70;;;7.50;99.90;;;;;;5022685;28;20487;-36
2021/11/16 01:00:30;;;;;;;26.80;16.40;;;7.60;99.90;;;;;;5021879;28;20178;-37
2021/11/16 01:02:56;;;;;;;22.97;16.50;;;7.20;99.90;;;;;;5015571;28;20433;-36
2021/11/16 01:05:22;;;;;;;24.73;16.97;;;7.60;99.90;;;;;;5011820;28;20836;-36
2021/11/16 01:07:48;;;;;;;23.77;16.60;;;7.50;99.90;;;;;;5007140;28;20430;-36
2021/11/16 01:10:17;;;;;;;25.50;16.33;;;7.50;99.90;;;;;;5006968;28;20681;-37
2021/11/16 01:12:43;;;;;;;27.80;17.57;;;7.60;99.90;;;;;;5013855;28;20218;-36
2021/11/16 01:15:11;;;;;;;26.97;16.30;;;7.60;99.90;;;;;;5021673;28;20517;-36
2021/11/16 01:17:37;;;;;;;26.00;15.63;;;7.50;99.90;;;;;;5007152;28;20809;-37
2021/11/16 01:20:05;;;;;;;25.80;17.20;;;7.40;99.90;;;;;;5007672;28;20414;-37
2021/11/16 01:22:31;;;;;;;23.10;16.53;;;7.40;99.90;;;;;;5007096;28;20206;-36
2021/11/16 01:24:57;;;;;;;22.60;15.53;;;7.60;99.90;;;;;;5006335;28;20504;-37
2021/11/16 01:27:25;;;;;;;24.33;16.20;;;7.50;99.90;;;;;;5010318;28;20182;-36
2021/11/16 01:29:51;;;;;;;22.60;15.50;;;7.50;99.90;;;;;;5018834;28;20202;-36
2021/11/16 01:33:01;;;;;;;22.73;15.47;;;7.50;99.90;;;;;;5015271;28;20452;-37
2021/11/16 01:35:10;;;;;;;24.50;15.83;;;7.60;99.90;;;;;;5015713;28;20252;-36
2021/11/16 01:37:36;;;;;;;22.80;16.50;;;7.60;99.90;;;;;;5011245;28;20929;-36
2021/11/16 01:40:05;;;;;;;20.10;15.40;;;7.50;99.90;;;;;;5006820;28;20422;-36
2021/11/16 01:42:32;;;;;;;24.37;16.13;;;7.40;99.90;;;;;;5014633;28;20469;-36
2021/11/16 01:44:58;;;;;;;22.27;15.37;;;7.70;99.90;;;;;;5021774;28;20428;-36
2021/11/16 01:47:24;;;;;;;22.57;15.10;;;7.60;99.90;;;;;;5010609;28;21063;-36
2021/11/16 01:49:49;;;;;;;26.27;16.27;;;7.50;99.90;;;;;;5018335;28;20492;-36
2021/11/16 01:52:15;;;;;;;25.93;16.83;;;7.60;99.90;;;;;;5010661;28;20517;-36
2021/11/16 01:54:41;;;;;;;25.13;16.67;;;7.50;99.90;;;;;;5006774;28;20242;-36
2021/11/16 01:57:07;;;;;;;22.50;14.87;;;7.60;99.90;;;;;;5016661;28;21046;-36
2021/11/16 01:59:33;;;;;;;21.17;14.73;;;7.60;99.90;;;;;;5028310;28;20193;-36
2021/11/16 02:02:01;;;;;;;22.00;14.90;;;7.90;99.90;;;;;;5022086;28;20607;-36
2021/11/16 02:04:26;;;;;;;23.40;15.17;;;7.40;99.90;;;;;;5009738;28;20254;-36
2021/11/16 02:06:52;;;;;;;25.50;16.50;;;7.50;99.90;;;;;;5010743;28;20545;-36
2021/11/16 02:09:18;;;;;;;25.43;15.63;;;7.40;99.90;;;;;;5009832;28;20245;-36
2021/11/16 02:11:44;;;;;;;23.60;15.73;;;7.30;99.90;;;;;;5010328;28;20207;-36
2021/11/16 02:14:13;;;;;;;26.10;17.23;;;7.10;99.90;;;;;;5018917;28;20543;-37
2021/11/16 02:16:40;;;;;;;23.23;15.87;;;7.30;99.90;;;;;;5020319;28;20426;-37
2021/11/16 02:19:07;;;;;;;26.83;16.30;;;7.40;99.90;;;;;;5010242;28;20810;-37
2021/11/16 02:21:33;;;;;;;21.07;15.50;;;7.50;99.90;;;;;;5019618;28;20429;-36
2021/11/16 02:23:59;;;;;;;23.90;16.20;;;7.50;99.90;;;;;;5009277;28;20937;-36
2021/11/16 02:26:25;;;;;;;21.33;15.23;;;7.20;99.90;;;;;;5009246;28;20426;-36
2021/11/16 02:28:51;;;;;;;23.80;16.20;;;7.40;99.90;;;;;;5021465;28;20518;-36
2021/11/16 02:31:17;;;;;;;26.07;16.03;;;7.40;99.90;;;;;;5021494;28;20199;-36
2021/11/16 02:33:44;;;;;;;23.97;16.17;;;7.40;99.90;;;;;;5009205;28;20453;-36
2021/11/16 02:36:11;;;;;;;28.90;16.83;;;7.40;99.90;;;;;;5015194;28;20453;-36
2021/11/16 02:38:37;;;;;;;21.10;15.30;;;7.40;99.90;;;;;;5009786;28;20416;-36
2021/11/16 02:41:04;;;;;;;25.07;15.83;;;7.30;99.90;;;;;;5009832;28;20418;-37
2021/11/16 02:43:32;;;;;;;27.57;16.17;;;7.10;99.90;;;;;;5008857;28;20441;-36
2021/11/16 02:45:59;;;;;;;23.07;16.00;;;7.30;99.90;;;;;;5024135;28;20413;-36
2021/11/16 02:48:25;;;;;;;21.20;15.10;;;7.30;99.90;;;;;;5019754;28;20422;-36
2021/11/16 02:50:55;;;;;;;23.53;16.00;;;7.50;99.90;;;;;;5012611;28;20456;-36
2021/11/16 02:53:22;;;;;;;25.47;16.17;;;7.30;99.90;;;;;;5008694;28;20452;-36
2021/11/16 02:55:48;;;;;;;24.83;15.67;;;7.40;99.90;;;;;;5009255;28;20929;-36
2021/11/16 02:58:15;;;;;;;24.80;15.47;;;7.30;99.90;;;;;;5009961;28;20588;-36
2021/11/16 03:00:45;;;;;;;23.80;17.00;;;7.40;99.90;;;;;;5015422;28;20414;-36
2021/11/16 03:03:11;;;;;;;24.80;15.97;;;7.30;99.90;;;;;;5009482;28;20810;-36
2021/11/16 03:05:38;;;;;;;23.83;15.47;;;7.40;99.90;;;;;;5012398;28;20532;-36
2021/11/16 03:08:18;;;;;;;22.97;15.87;;;7.60;99.90;;;;;;5016565;28;20517;-37
2021/11/16 03:10:44;;;;;;;25.70;17.50;;;7.60;99.90;;;;;;5009182;28;20203;-37
2021/11/16 03:13:11;;;;;;;25.20;16.60;;;7.30;99.90;;;;;;5016130;28;20438;-36
2021/11/16 03:15:37;;;;;;;22.27;15.33;;;7.60;99.90;;;;;;5011803;28;20458;-37
2021/11/16 03:18:03;;;;;;;24.67;16.87;;;7.30;99.90;;;;;;5011365;28;20503;-36
2021/11/16 03:20:29;;;;;;;25.87;16.87;;;7.60;99.90;;;;;;5010886;28;20529;-36
2021/11/16 03:22:58;;;;;;;24.77;15.90;;;7.50;99.90;;;;;;5013601;28;20933;-36
2021/11/16 03:25:29;;;;;;;24.70;16.80;;;7.50;99.90;;;;;;5008788;28;20520;-36
2021/11/16 03:27:59;;;;;;;25.77;15.57;;;7.40;99.90;;;;;;5014945;28;20449;-36
2021/11/16 03:30:27;;;;;;;20.87;15.00;;;7.30;99.90;;;;;;5022092;28;20512;-36
2021/11/16 03:32:53;;;;;;;25.20;16.57;;;7.50;99.90;;;;;;5010429;28;20533;-36
2021/11/16 03:35:19;;;;;;;24.63;15.60;;;7.40;99.90;;;;;;5008435;28;20568;-37
2021/11/16 03:37:49;;;;;;;22.17;15.43;;;7.40;99.90;;;;;;5011390;28;20432;-36
2021/11/16 03:40:15;;;;;;;21.97;15.57;;;7.30;99.90;;;;;;5008258;28;20275;-36
2021/11/16 03:42:44;;;;;;;22.97;15.77;;;7.30;99.90;;;;;;5012713;28;20437;-36
2021/11/16 03:45:15;;;;;;;23.80;17.00;;;7.40;99.90;;;;;;5023302;28;21006;-36
2021/11/16 03:47:42;;;;;;;28.70;18.27;;;7.20;99.90;;;;;;5018414;28;20823;-36
2021/11/16 03:50:12;;;;;;;25.37;17.57;;;7.20;99.90;;;;;;5015805;28;20422;-36
2021/11/16 03:52:42;;;;;;;27.47;18.57;;;7.40;99.90;;;;;;5017967;28;20422;-36
2021/11/16 03:55:08;;;;;;;27.10;19.03;;;7.40;99.90;;;;;;5007981;28;20463;-36
2021/11/16 03:57:35;;;;;;;25.27;18.30;;;7.50;99.90;;;;;;5011409;28;20449;-36
2021/11/16 04:00:03;;;;;;;26.87;18.47;;;7.50;99.90;;;;;;5015964;28;20425;-36
2021/11/16 04:02:29;;;;;;;30.93;18.73;;;7.30;99.90;;;;;;5014153;28;20422;-36
2021/11/16 04:04:55;;;;;;;29.23;18.80;;;7.00;99.90;;;;;;5007522;28;20756;-37
2021/11/16 04:07:21;;;;;;;31.70;18.63;;;6.80;99.90;;;;;;5014694;28;20835;-36
2021/11/16 04:09:47;;;;;;;26.00;17.27;;;6.90;99.90;;;;;;5008084;28;20529;-36
2021/11/16 04:12:13;;;;;;;27.80;17.67;;;7.00;99.90;;;;;;5007271;28;20512;-36
2021/11/16 04:14:39;;;;;;;29.73;18.50;;;7.10;99.90;;;;;;5019756;28;20223;-36
2021/11/16 04:17:05;;;;;;;26.00;17.73;;;7.00;99.90;;;;;;5024867;28;20214;-36
2021/11/16 04:19:30;;;;;;;29.87;19.30;;;7.10;99.90;;;;;;5013969;28;20682;-37
2021/11/16 04:21:57;;;;;;;26.00;16.67;;;7.00;99.90;;;;;;5010930;28;20426;-37
2021/11/16 04:24:23;;;;;;;26.80;17.80;;;7.30;99.90;;;;;;5007143;28;20249;-37
2021/11/16 04:26:48;;;;;;;30.20;19.23;;;7.20;99.90;;;;;;5007299;28;20464;-36
2021/11/16 04:29:14;;;;;;;23.13;16.20;;;7.20;99.90;;;;;;5015628;28;20437;-36
2021/11/16 04:31:40;;;;;;;28.40;18.63;;;7.10;99.90;;;;;;5019447;28;20433;-37
2021/11/16 04:34:08;;;;;;;28.03;19.23;;;7.30;99.90;;;;;;5013141;28;20225;-36
2021/11/16 04:36:34;;;;;;;26.13;17.13;;;7.20;99.90;;;;;;5013910;28;20552;-37
2021/11/16 04:39:01;;;;;;;28.07;19.30;;;7.10;99.90;;;;;;5013336;28;20433;-36
2021/11/16 04:41:27;;;;;;;28.17;17.70;;;7.10;99.90;;;;;;5007145;28;20428;-36
2021/11/16 04:43:55;;;;;;;28.10;17.67;;;7.10;99.90;;;;;;5010506;28;20497;-36
2021/11/16 04:46:22;;;;;;;30.03;18.63;;;7.10;99.90;;;;;;5024357;28;20579;-36
2021/11/16 04:49:03;;;;;;;28.43;17.87;;;7.30;99.90;;;;;;5022046;28;20487;-36
2021/11/16 05:02:34;;;;;;;28.37;17.40;;;7.50;99.90;;;;;;5015295;28;20532;-36
2021/11/16 05:02:40;;;;;;;31.57;19.00;;;7.40;99.90;;;;;;5020032;28;20449;-36
2021/11/16 05:05:26;;;;;;;25.60;16.83;;;7.30;99.90;;;;;;5011643;28;20437;-37
2021/11/16 05:07:58;;;;;;;29.40;18.67;;;7.20;99.90;;;;;;5010045;28;20442;-36
2021/11/16 05:10:24;;;;;;;29.80;18.33;;;7.40;99.90;;;;;;5006927;28;20577;-36
2021/11/16 05:12:50;;;;;;;26.27;18.53;;;7.10;99.90;;;;;;5008304;28;20484;-36
2021/11/16 05:15:18;;;;;;;29.30;18.50;;;7.30;99.90;;;;;;5012902;28;20468;-37
2021/11/16 05:17:47;;;;;;;27.50;18.70;;;7.10;99.90;;;;;;5016575;28;20465;-36
2021/11/16 05:20:18;;;;;;;29.63;17.80;;;7.10;99.90;;;;;;5006891;28;20440;-37
2021/11/16 05:22:46;;;;;;;27.50;19.50;;;7.40;99.90;;;;;;5019267;28;20487;-36
2021/11/16 05:25:12;;;;;;;28.63;18.20;;;7.20;99.90;;;;;;5006612;28;20426;-36
2021/11/16 05:27:39;;;;;;;29.53;18.37;;;7.40;99.90;;;;;;5006669;28;20960;-36
2021/11/16 05:30:07;;;;;;;25.17;18.10;;;7.20;99.90;;;;;;5017748;28;20596;-36
2021/11/16 05:32:38;;;;;;;31.03;18.60;;;7.20;99.90;;;;;;5015269;28;20789;-36
2021/11/16 05:35:06;;;;;;;27.20;18.50;;;7.20;99.90;;;;;;5010621;28;20977;-36
2021/11/16 05:37:33;;;;;;;24.60;16.77;;;7.60;99.90;;;;;;5019757;28;20429;-36
2021/11/16 05:39:58;;;;;;;26.80;17.20;;;7.50;99.90;;;;;;5010742;28;20477;-36
2021/11/16 05:42:24;;;;;;;25.73;17.07;;;7.70;99.90;;;;;;5010597;28;20471;-37
2021/11/16 05:44:51;;;;;;;26.07;17.43;;;7.60;99.90;;;;;;5025971;28;20201;-36
2021/11/16 05:47:18;;;;;;;28.33;17.30;;;7.40;99.90;;;;;;5023094;28;20671;-36
2021/11/16 05:49:44;;;;;;;28.50;17.60;;;7.40;99.90;;;;;;5021289;28;20739;-36
2021/11/16 05:52:10;;;;;;;27.93;17.97;;;7.20;99.90;;;;;;5014383;28;20428;-36
2021/11/16 05:54:36;;;;;;;30.27;18.27;;;7.30;99.90;;;;;;5009624;28;20495;-36
2021/11/16 05:57:04;;;;;;;26.93;17.97;;;7.20;99.90;;;;;;5010313;28;20218;-36
2021/11/16 05:59:34;;;;;;;29.00;17.37;;;7.30;99.90;;;;;;5017206;28;20936;-37
2021/11/16 06:02:06;;;;;;;27.00;16.57;;;7.20;99.90;;;;;;5028889;28;20421;-36
2021/11/16 06:04:33;;;;;;;24.70;16.10;;;7.20;99.90;;;;;;5009807;28;20438;-36
2021/11/16 06:06:59;;;;;;;28.20;17.67;;;7.30;99.90;;;;;;5020797;28;20931;-36
2021/11/16 06:09:26;;;;;;;28.73;16.80;;;7.10;99.90;;;;;;5018869;28;20818;-37
2021/11/16 06:11:54;;;;;;;28.43;18.20;;;7.10;99.90;;;;;;5009912;28;20933;-37
2021/11/16 06:14:20;;;;;;;25.23;15.80;;;7.10;99.90;;;;;;5017717;28;20487;-37
2021/11/16 06:16:46;;;;;;;24.90;14.97;;;7.00;99.90;;;;;;5019532;28;20434;-36
2021/11/16 06:19:12;;;;;;;24.27;13.90;;;7.10;99.90;;;;;;5013330;28;20437;-36
2021/11/16 06:21:38;;;;;;;26.33;16.33;;;6.90;99.90;;;;;;5011083;28;20418;-36
2021/11/16 06:24:04;;;;;;;26.57;16.23;;;7.20;99.90;;;;;;5017063;28;20443;-36
2021/11/16 06:26:32;;;;;;;25.20;15.70;;;7.30;99.90;;;;;;5009969;28;20217;-37
2021/11/16 06:29:00;;;;;;;24.67;15.87;;;7.20;99.90;;;;;;5013299;28;20465;-36
2021/11/16 06:31:26;;;;;;;25.63;15.37;;;7.30;99.90;;;;;;5019083;28;20572;-36
2021/11/16 06:33:55;;;;;;;28.20;15.67;;;7.10;99.90;;;;;;5027307;28;20469;-36
2021/11/16 06:36:23;;;;;;;25.43;16.10;;;7.10;99.90;;;;;;5009873;28;20434;-37
2021/11/16 06:38:48;;;;;;;25.37;16.27;;;7.30;99.90;;;;;;5015859;28;20876;-36
2021/11/16 06:41:14;;;;;;;26.60;15.73;;;7.00;99.90;;;;;;5022123;28;20430;-36
2021/11/16 06:43:40;;;;;;;24.67;15.73;;;7.20;99.90;;;;;;5011991;28;20197;-36
2021/11/16 06:46:06;;;;;;;27.20;16.90;;;7.00;99.90;;;;;;5025878;28;20432;-36
2021/11/16 06:48:32;;;;;;;28.70;18.70;;;7.20;99.90;;;;;;5018669;28;20566;-36
2021/11/16 06:51:01;;;;;;;33.70;20.10;;;7.10;99.90;;;;;;5009578;28;20428;-36
2021/11/16 06:53:30;;;;;;;33.57;19.43;;;7.20;99.90;;;;;;5009343;28;20422;-36
2021/11/16 06:55:56;;;;;;;34.90;21.17;;;7.40;99.90;;;;;;5024182;28;20433;-36
2021/11/16 06:58:24;;;;;;;32.20;20.17;;;7.30;99.90;;;;;;5020306;28;20510;-36
2021/11/16 07:00:51;;;;;;;31.23;18.30;;;7.20;99.90;;;;;;5015663;28;20745;-36
2021/11/16 07:03:22;;;;;;;30.73;18.53;;;7.10;99.90;;;;;;5024051;28;20448;-36
2021/11/16 07:06:03;;;;;;;28.57;17.93;;;7.20;99.90;;;;;;5011847;28;20442;-36
2021/11/16 07:08:32;;;;;;;26.90;17.17;;;7.40;99.90;;;;;;5015136;28;20449;-37
2021/11/16 07:11:16;;;;;;;28.27;18.30;;;7.10;99.90;;;;;;5022254;28;21046;-36
2021/11/16 07:14:10;;;;;;;35.43;18.23;;;7.00;99.90;;;;;;5018294;28;20489;-36
2021/11/16 07:16:40;;;;;;;32.27;18.03;;;7.40;99.90;;;;;;5016189;28;20792;-36
2021/11/16 07:19:08;;;;;;;26.30;16.10;;;7.10;99.90;;;;;;5028555;28;20422;-36
2021/11/16 07:21:45;;;;;;;28.50;16.70;;;7.20;99.90;;;;;;5010198;28;20426;-36
2021/11/16 07:24:15;;;;;;;27.13;17.30;;;7.40;99.90;;;;;;5013336;28;20528;-36
2021/11/16 07:26:42;;;;;;;27.53;16.83;;;7.50;99.90;;;;;;5013611;28;20425;-36
2021/11/16 07:29:30;;;;;;;27.03;16.17;;;7.40;99.90;;;;;;5025898;28;20475;-36
2021/11/16 07:31:56;;;;;;;29.27;18.30;;;7.40;99.90;;;;;;5019779;28;20436;-36
2021/11/16 07:34:22;;;;;;;29.30;16.40;;;7.30;99.90;;;;;;5012986;28;20461;-36
2021/11/16 07:37:04;;;;;;;27.33;17.30;;;7.50;99.90;;;;;;5008653;28;20943;-36
2021/11/16 07:39:42;;;;;;;28.73;18.30;;;7.20;99.90;;;;;;5008818;28;20438;-37
2021/11/16 07:42:09;;;;;;;32.93;18.87;;;7.30;99.90;;;;;;5023913;28;20957;-36
2021/11/16 07:44:35;;;;;;;34.40;19.50;;;7.30;99.90;;;;;;5030321;28;20440;-36
2021/11/16 07:47:03;;;;;;;35.47;20.30;;;7.20;99.90;;;;;;5026089;28;20460;-36
2021/11/16 07:49:29;;;;;;;34.70;21.90;;;7.40;99.90;;;;;;5015430;28;20437;-36
2021/11/16 07:51:55;;;;;;;34.83;21.23;;;7.30;99.90;;;;;;5007120;28;20835;-36
2021/11/16 07:54:30;;;;;;;37.47;20.90;;;7.20;99.90;;;;;;5029844;28;20465;-36
2021/11/16 07:57:06;;;;;;;40.60;24.50;;;7.00;99.90;;;;;;5040984;28;20452;-37
2021/11/16 07:59:33;;;;;;;36.97;22.87;;;7.10;99.90;;;;;;5031541;28;20540;-36
2021/11/16 08:02:02;;;;;;;39.57;22.23;;;6.80;99.90;;;;;;5022940;28;20422;-36
2021/11/16 08:09:54;;;;;;;38.23;20.23;;;7.00;99.90;;;;;;5042065;28;20447;-36
2021/11/16 08:12:32;;;;;;;37.50;21.30;;;7.20;99.90;;;;;;5008165;28;20788;-36
2021/11/16 08:15:04;;;;;;;39.17;21.90;;;7.00;99.90;;;;;;5012451;28;20572;-36
2021/11/16 08:17:32;;;;;;;35.13;21.33;;;7.10;99.90;;;;;;5019289;28;21023;-36
2021/11/16 08:20:02;;;;;;;34.70;21.30;;;7.00;99.90;;;;;;5021235;28;20418;-36
2021/11/16 08:22:28;;;;;;;32.30;19.60;;;7.20;99.90;;;;;;5007986;28;20941;-36
2021/11/16 08:24:56;;;;;;;36.77;21.40;;;7.20;99.90;;;;;;5009350;28;20432;-36
2021/11/16 08:27:29;;;;;;;33.80;20.30;;;7.30;99.90;;;;;;5007916;28;20434;-37
2021/11/16 08:30:02;;;;;;;33.47;19.03;;;7.00;99.90;;;;;;5008728;28;20481;-36
2021/11/16 08:32:36;;;;;;;36.50;20.13;;;7.10;99.90;;;;;;5020607;28;20440;-36
2021/11/16 08:35:24;;;;;;;34.00;19.53;;;7.00;99.90;;;;;;5013281;28;20473;-36
2021/11/16 08:37:55;;;;;;;36.40;21.37;;;6.90;99.90;;;;;;5011113;28;20843;-36
2021/11/16 08:40:24;;;;;;;33.57;19.20;;;6.80;99.90;;;;;;5016836;28;20476;-36
2021/11/16 08:42:58;;;;;;;36.33;20.67;;;7.10;99.90;;;;;;5006979;28;20524;-36
2021/11/16 08:45:28;;;;;;;33.80;20.30;;;6.90;99.90;;;;;;5014543;28;20441;-36
2021/11/16 08:48:04;;;;;;;35.83;20.87;;;6.90;99.90;;;;;;5022341;28;20434;-37
2021/11/16 08:50:34;;;;;;;34.23;20.03;;;7.10;99.90;;;;;;5010890;28;20445;-36
2021/11/16 08:53:06;;;;;;;34.57;19.87;;;7.00;99.90;;;;;;5007676;28;20434;-36
2021/11/16 08:55:33;;;;;;;40.67;21.50;;;6.90;99.90;;;;;;5010506;28;20466;-36
2021/11/16 08:58:01;;;;;;;34.63;20.10;;;7.00;99.90;;;;;;5006006;28;20545;-36
2021/11/16 09:00:34;;;;;;;35.30;20.57;;;7.20;99.90;;;;;;5008646;28;20442;-36
2021/11/16 09:03:13;;;;;;;35.00;20.00;;;7.40;99.90;;;;;;5010747;28;20812;-36
2021/11/16 09:05:44;;;;;;;31.83;18.60;;;7.30;99.90;;;;;;5018361;28;20526;-36
2021/11/16 09:08:25;;;;;;;30.47;18.47;;;7.40;99.90;;;;;;5009584;28;20441;-36
2021/11/16 09:11:01;;;;;;;27.70;16.90;;;7.30;99.90;;;;;;5007268;28;20470;-36
2021/11/16 09:13:29;;;;;;;30.50;16.90;;;7.40;99.90;;;;;;5007032;28;20460;-36
2021/11/16 09:16:04;;;;;;;28.00;18.20;;;7.20;99.90;;;;;;5016912;28;20445;-36
2021/11/16 09:18:40;;;;;;;28.07;17.70;;;7.20;99.90;;;;;;5011084;28;20418;-36
2021/11/16 09:21:15;;;;;;;29.07;18.03;;;7.40;99.90;;;;;;5013802;28;20418;-36
2021/11/16 09:23:52;;;;;;;27.30;17.97;;;7.30;99.90;;;;;;5012261;28;20425;-36
2021/11/16 09:26:36;;;;;;;28.10;18.37;;;7.30;99.90;;;;;;5011148;28;20422;-36
2021/11/16 09:29:21;;;;;;;28.40;16.50;;;7.30;99.90;;;;;;5006942;28;20879;-36
2021/11/16 09:31:51;;;;;;;28.63;16.90;;;7.30;99.90;;;;;;5015569;28;20469;-36
2021/11/16 09:34:16;;;;;;;30.13;18.17;;;7.30;99.90;;;;;;5016736;28;20832;-36
2021/11/16 09:37:04;;;;;;;29.43;17.73;;;7.10;99.90;;;;;;5006855;28;20434;-36
2021/11/16 09:39:38;;;;;;;27.93;16.27;;;7.20;99.90;;;;;;5014789;28;20191;-36
2021/11/16 09:42:07;;;;;;;25.27;16.27;;;7.30;99.90;;;;;;5006893;28;20429;-36
2021/11/16 09:44:43;;;;;;;30.47;18.30;;;7.50;99.90;;;;;;5012717;28;20634;-36
2021/11/16 09:47:24;;;;;;;29.37;17.40;;;7.30;99.90;;;;;;5008203;28;20434;-36
2021/11/16 09:50:03;;;;;;;26.10;16.77;;;7.30;99.90;;;;;;5024151;28;20470;-36
2021/11/16 09:52:32;;;;;;;34.03;18.27;;;7.30;99.90;;;;;;5008705;28;20433;-36
2021/11/16 09:55:19;;;;;;;28.87;18.73;;;7.20;99.90;;;;;;5008815;28;20974;-36
2021/11/16 09:57:47;;;;;;;32.37;18.67;;;7.40;99.90;;;;;;5007021;28;20438;-37
2021/11/16 10:00:26;;;;;;;32.00;19.30;;;7.20;99.90;;;;;;5008371;28;20911;-36
2021/11/16 10:03:11;;;;;;;35.60;19.60;;;7.20;99.90;;;;;;5016522;28;20433;-36
2021/11/16 10:05:51;;;;;;;31.30;18.97;;;7.20;99.90;;;;;;5009630;28;20441;-36
2021/11/16 10:08:18;;;;;;;27.60;16.93;;;7.20;99.90;;;;;;5006921;28;20429;-36
2021/11/16 10:10:48;;;;;;;29.70;18.50;;;7.10;99.90;;;;;;5006535;28;20928;-36
2021/11/16 10:13:16;;;;;;;34.17;20.70;;;7.30;99.90;;;;;;5006095;28;20487;-36
2021/11/16 10:15:45;;;;;;;34.27;19.57;;;7.20;99.90;;;;;;5013079;28;20487;-36
2021/11/16 10:18:12;;;;;;;32.90;18.07;;;7.10;99.90;;;;;;5019222;28;20421;-36
2021/11/16 10:20:41;;;;;;;27.83;18.40;;;7.10;99.90;;;;;;5015518;28;20529;-36
2021/11/16 10:23:10;;;;;;;29.27;18.10;;;7.20;99.90;;;;;;5009025;28;20529;-36
2021/11/16 10:25:39;;;;;;;29.67;17.80;;;7.40;99.90;;;;;;5017684;28;20808;-36
2021/11/16 10:28:14;;;;;;;28.00;17.27;;;7.40;99.90;;;;;;5010129;28;20469;-36
2021/11/16 10:30:41;;;;;;;28.90;16.00;;;7.40;99.90;;;;;;5013620;28;20440;-36
2021/11/16 10:33:15;;;;;;;28.70;16.73;;;7.40;99.90;;;;;;5022039;28;20463;-36
2021/11/16 10:35:55;;;;;;;26.40;16.40;;;7.60;99.90;;;;;;5027895;28;20876;-36
2021/11/16 10:38:26;;;;;;;24.80;15.90;;;7.30;99.90;;;;;;5008919;28;20417;-36
2021/11/16 10:40:54;;;;;;;27.83;16.60;;;7.50;99.90;;;;;;5012889;28;20883;-36
2021/11/16 10:43:20;;;;;;;26.47;15.73;;;7.40;99.90;;;;;;5009258;28;20488;-36
2021/11/16 10:45:49;;;;;;;24.93;14.90;;;7.50;99.90;;;;;;5031140;28;20435;-36
2021/11/16 10:48:19;;;;;;;25.33;14.70;;;7.60;99.90;;;;;;5036700;28;20942;-36
2021/11/16 10:50:47;;;;;;;27.37;15.23;;;7.50;99.90;;;;;;5014877;28;20426;-36
2021/11/16 10:53:23;;;;;;;25.97;15.17;;;7.60;99.90;;;;;;5028817;28;20467;-36
2021/11/16 10:55:58;;;;;;;23.27;14.07;;;7.60;99.90;;;;;;5032990;28;20505;-36
2021/11/16 10:58:27;;;;;;;25.13;14.50;;;7.60;99.90;;;;;;5032534;28;20437;-36
2021/11/16 11:01:00;;;;;;;29.40;15.67;;;7.60;99.90;;;;;;5031438;28;20767;-36
2021/11/16 11:03:36;;;;;;;27.57;15.40;;;7.30;99.90;;;;;;5029349;28;20838;-36
2021/11/16 11:06:27;;;;;;;26.97;15.67;;;7.70;99.90;;;;;;5035882;28;20475;-36
2021/11/16 11:09:00;;;;;;;27.43;15.43;;;7.50;99.90;;;;;;5029027;28;20448;-36
2021/11/16 11:11:41;;;;;;;26.23;15.10;;;7.50;99.90;;;;;;5008929;28;20426;-37
2021/11/16 11:14:15;;;;;;;27.53;15.90;;;7.50;99.90;;;;;;5008583;28;20469;-36
2021/11/16 11:16:51;;;;;;;24.87;13.90;;;7.60;99.90;;;;;;5020247;28;20451;-36
2021/11/16 11:19:26;;;;;;;24.50;14.60;;;7.70;99.90;;;;;;5029462;28;20926;-37
2021/11/16 11:22:25;;;;;;;23.83;14.93;;;7.40;99.90;;;;;;5030241;28;20475;-36
2021/11/16 11:25:07;;;;;;;21.30;13.20;;;7.50;99.90;;;;;;5031707;28;21266;-36
2021/11/16 11:27:41;;;;;;;22.30;13.67;;;7.50;99.90;;;;;;5008095;28;20446;-36
2021/11/16 11:30:14;;;;;;;19.97;13.57;;;7.50;99.90;;;;;;5016233;28;20927;-36
2021/11/16 11:32:42;;;;;;;21.70;13.43;;;7.60;99.90;;;;;;5022217;28;20445;-36
2021/11/16 11:35:12;;;;;;;25.53;15.40;;;7.60;99.90;;;;;;5023012;28;20559;-36
2021/11/16 11:37:43;;;;;;;22.80;14.63;;;7.70;99.90;;;;;;5012840;28;20434;-36
2021/11/16 11:40:16;;;;;;;22.63;14.33;;;7.90;99.90;;;;;;5018218;28;20473;-36
2021/11/16 11:42:52;;;;;;;20.30;12.40;;;7.70;99.90;;;;;;5010374;28;20968;-36
2021/11/16 11:45:30;;;;;;;20.20;12.93;;;7.50;99.90;;;;;;5021351;28;20431;-36
2021/11/16 11:47:58;;;;;;;18.50;11.30;;;7.50;99.90;;;;;;5020421;28;20444;-36
2021/11/16 11:50:29;;;;;;;18.37;11.07;;;7.60;99.90;;;;;;5012050;28;20437;-36
2021/11/16 11:52:57;;;;;;;16.83;10.47;;;7.70;99.90;;;;;;5018929;28;20792;-36
2021/11/16 11:55:24;;;;;;;17.53;10.67;;;7.40;99.90;;;;;;5014774;28;20995;-36
2021/11/16 11:57:49;;;;;;;20.93;11.33;;;7.70;99.90;;;;;;5008414;28;20453;-36
2021/11/16 12:00:16;;;;;;;18.27;11.47;;;7.70;99.90;;;;;;5008272;28;20787;-36
2021/11/16 12:02:43;;;;;;;16.27;10.83;;;7.70;99.90;;;;;;5016777;28;20599;-36
2021/11/16 12:05:09;;;;;;;18.50;11.73;;;7.70;99.90;;;;;;5020457;28;20433;-36
2021/11/16 12:07:34;;;;;;;17.67;11.03;;;7.70;99.90;;;;;;5018823;28;20433;-36
2021/11/16 12:10:00;;;;;;;17.93;10.90;;;7.80;99.90;;;;;;5011944;28;20482;-36
2021/11/16 12:12:26;;;;;;;16.80;10.80;;;7.60;99.90;;;;;;5008462;28;20646;-36
2021/11/16 12:15:00;;;;;;;17.90;11.27;;;7.70;99.90;;;;;;5007265;28;20509;-36
2021/11/16 12:17:34;;;;;;;19.87;10.77;;;7.70;99.90;;;;;;5013490;28;20531;-36
2021/11/16 12:20:00;;;;;;;20.03;11.47;;;7.70;99.90;;;;;;5024879;28;20461;-36
2021/11/16 12:22:32;;;;;;;17.33;11.50;;;7.50;99.90;;;;;;5008117;28;20437;-36
2021/11/16 12:25:20;;;;;;;18.40;11.17;;;7.50;99.90;;;;;;5010947;28;20565;-36
2021/11/16 12:27:46;;;;;;;18.60;11.77;;;7.50;99.90;;;;;;5011899;28;20483;-36
2021/11/16 12:30:12;;;;;;;16.20;10.80;;;7.60;99.90;;;;;;5007474;28;20636;-36
2021/11/16 12:32:51;;;;;;;17.83;11.07;;;7.70;99.90;;;;;;5015455;28;20865;-36
2021/11/16 12:35:20;;;;;;;16.30;11.10;;;7.60;99.90;;;;;;5016608;28;20214;-36
2021/11/16 12:37:49;;;;;;;17.50;10.50;;;7.70;99.90;;;;;;5007217;28;20476;-36
2021/11/16 12:40:41;;;;;;;15.80;10.23;;;7.50;99.90;;;;;;5014140;28;20436;-37
2021/11/16 12:43:07;;;;;;;18.20;11.70;;;7.80;99.90;;;;;;5007453;28;20429;-36
2021/11/16 12:45:43;;;;;;;18.67;11.60;;;7.50;99.90;;;;;;5021949;28;20436;-36
2021/11/16 12:48:10;;;;;;;16.73;11.13;;;7.70;99.90;;;;;;5025413;28;20194;-36
2021/11/16 12:50:36;;;;;;;17.40;11.47;;;7.70;99.90;;;;;;5015016;28;20772;-37
2021/11/16 12:53:03;;;;;;;13.83;9.83;;;7.70;99.90;;;;;;5016789;28;20999;-36
2021/11/16 12:55:32;;;;;;;15.57;10.53;;;7.60;99.90;;;;;;5011557;28;20465;-36
2021/11/16 12:58:27;;;;;;;18.27;11.00;;;7.80;99.90;;;;;;5007383;28;20540;-36
2021/11/16 13:00:53;;;;;;;17.90;10.93;;;7.50;99.90;;;;;;5014586;28;20792;-36
2021/11/16 13:03:55;;;;;;;15.50;10.33;;;7.50;99.90;;;;;;5017016;28;20441;-36